ADDS METAR Data INFO
IDs: Format: Raw Decoded Include TAF

Data at: 1940 UTC 17 Feb 2018

KDAL 171853Z VRB03KT 10SM FEW015 FEW060 SCT120 BKN250 13/08 A3011 RMK AO2 SLP196 T01280083 $
KDAL 171753Z 22004KT 10SM SCT010 SCT060 BKN110 BKN250 11/08 A3013 RMK AO2 SLP200 60035 T01060078 10111 20056 58005 $
KDAL 171653Z 17005KT 10SM SCT007 SCT035 BKN060 08/07 A3014 RMK AO2 SLP206 T00780067 $
KDAL 171553Z 18004KT 10SM FEW006 OVC037 07/06 A3014 RMK AO2 RAE47 SLP205 P0004 T00670061
KDAL 171516Z 15003KT 4SM -RA BR FEW006 SCT028 OVC035 07/05 A3013 RMK AO2 P0003 T00670050
KDAL 171453Z 00000KT 4SM RA BR SCT006 BKN028 OVC100 06/06 A3014 RMK AO2 SLP206 VIS E 2 P0015 60031 T00610056 53016
KDAL 171442Z 31006KT 5SM -RA BR SCT006 BKN028 OVC100 06/05 A3014 RMK AO2 PRESRR P0011 T00610050
KDAL 171425Z VRB03KT 4SM -RA BR SCT006 BKN030 OVC110 06/06 A3011 RMK AO2 P0010 T00610056
KDAL 171404Z 34005KT 3SM -RA BR BKN008 BKN030 OVC075 06/05 A3012 RMK AO2 P0005 T00610050
KDAL 171358Z 32008KT 2SM R13L/4500VP6000FT RA BR SCT005 BKN030 OVC075 06/05 A3013 RMK AO2 PRESRR P0004 T00610050
KDAL 171353Z VRB05KT 1 3/4SM R13L/4500VP6000FT +RA BR FEW018 BKN030 OVC075 06/05 A3011 RMK AO2 PRESRR SLP196 P0016 T00610050
KDAL 171349Z 18007KT 1 3/4SM R13L/6000VP6000FT +RA BR BKN030 OVC070 06/05 A3009 RMK AO2 P0012
KDAL 171344Z 18011KT 2SM R13L/6000VP6000FT +RA BR BKN030 OVC070 06/05 A3009 RMK AO2 P0006 T00610050
KDAL 171253Z 15003KT 5SM -RA BR FEW012 OVC030 06/04 A3008 RMK AO2 DZE30RAB30 SLP187 CB DSNT W-N-NE MOV E P0000 T00610039
KDAL 171153Z 00000KT 6SM -DZ SCT011 OVC031 06/03 A3009 RMK AO2 SLP190 P0000 60001 70002 T00610033 10083 20056 50004
KDAL 171120Z 32007KT 5SM -DZ BR BKN011 OVC022 06/04 A3011 RMK AO2 P0000 T00560044
KDAL 171053Z 33008KT 3SM -DZ BR BKN009 OVC019 06/04 A3011 RMK AO2 PRESFR SLP194 P0001 T00560039
KDAL 171018Z 33014G22KT 3SM -DZ BR BKN009 OVC019 06/04 A3012 RMK AO2 P0000 T00560039
KDAL 170953Z 32014KT 5SM -DZ OVC019 06/03 A3013 RMK AO2 DZB50 SLP201 P0000 T00610033
KDAL 170853Z 32007KT 10SM OVC020 08/02 A3008 RMK AO2 SLP185 T00780022 55012
KDAL 170753Z 32005KT 10SM OVC023 08/02 A3008 RMK AO2 SLP184 T00780022
KDAL 170653Z 30006KT 10SM OVC023 08/03 A3010 RMK AO2 SLP189 T00830028
KDAL 170553Z 00000KT 10SM OVC023 08/03 A3012 RMK AO2 RAB06E16 SLP196 P0000 60001 T00830028 10100 20078 402110078 58022
KDAL 170453Z 02003KT 10SM OVC026 08/03 A3015 RMK AO2 RAB0356E11B28E51 SLP207 P0001 T00830028
KDAL 170353Z 02004KT 10SM OVC026 09/01 A3016 RMK AO2 SLP210 T00890006
KDAL 170253Z 02007KT 10SM OVC026 09/00 A3018 RMK AO2 SLP219 T00940000 58011
KDAL 170153Z 05006KT 10SM OVC026 09/00 A3020 RMK AO2 SLP224 T00940000
KDAL 170053Z 02009G15KT 10SM OVC026 10/00 A3022 RMK AO2 SLP229 T01000000
KDAL 162353Z 36009KT 10SM BKN028 OVC140 10/00 A3022 RMK AO2 SLP230 T01000000 10144 20100 58003
KDAL 162329Z 02010KT 10SM BKN029 BKN140 OVC250 11/00 A3021 RMK AO2 T01060000
KDAL 162253Z 35012KT 10SM BKN031 BKN140 OVC250 11/00 A3022 RMK AO2 SLP231 T01110000 $
KDAL 162153Z 02012KT 10SM FEW035 BKN140 BKN250 12/01 A3023 RMK AO2 SLP232 T01220006 $
KDAL 162053Z COR 01012KT 10SM FEW035 BKN140 OVC250 13/01 A3022 RMK AO2 SLP231 T01280011 57009 $
KDAL 161953Z 02014G22KT 10SM BKN140 OVC250 13/01 A3023 RMK AO2 SLP233 T01330006 $
KDAL 161853Z 01014KT 10SM BKN140 OVC250 14/01 A3025 RMK AO2 PK WND 36027/1754 SLP238 T01440011 $
KDAL 161753Z 36017G26KT 10SM BKN130 BKN250 14/01 A3025 RMK AO2 PK WND 01026/1711 SLP240 T01440011 10161 20128 51015 $
KDAL 161653Z 01017G25KT 10SM FEW020 SCT130 BKN250 15/01 A3025 RMK AO2 PK WND 01027/1619 SLP239 T01500011 $
KDAL 161553Z 01015G24KT 10SM FEW020 FEW120 BKN250 14/02 A3023 RMK AO2 PK WND 36027/1533 SLP234 T01390017 $
KDAL 161453Z 35018G24KT 10SM FEW020 FEW120 BKN250 13/03 A3021 RMK AO2 PK WND 35026/1416 SLP225 T01280028 51051 $
KDAL 161353Z 35014G29KT 10SM FEW020 FEW120 BKN250 13/03 A3017 RMK AO2 PK WND 35029/1346 SLP213 T01330033 $
KDAL 161253Z 36011KT 10SM FEW022 SCT250 14/06 A3012 RMK AO2 SLP197 T01390056 $
KDAL 161217Z 35019KT 10SM SCT024 SCT250 15/07 A3008 RMK AO2 PRESRR T01500072 $
KDAL 161153Z 34017G24KT 10SM BKN027 BKN250 17/12 A3005 RMK AO2 PK WND 31026/1147 PRESRR SLP171 WSHFT 47 FROPA T01670122 10211 20167 53027 $
KDAL 161138Z 26004KT 8SM BKN027 BKN250 17/17 A3003 RMK AO2 T01720167 $
KDAL 161053Z 20003KT 10SM FEW016 FEW120 SCT250 18/17 A3000 RMK AO2 SLP153 T01780172 $
KDAL 160953Z 21007KT 10SM FEW120 SCT250 18/17 A2998 RMK AO2 SLP145 T01830172 $
KDAL 160853Z 21007KT 10SM FEW120 SCT250 19/18 A2997 RMK AO2 SLP144 T01890178 50007 $
KDAL 160753Z 21008KT 10SM FEW120 SCT250 20/18 A2997 RMK AO2 SLP144 T02000178 $